createdAt,value
2023-05-13T00:00:58.891Z,12.80
2023-05-13T00:03:26.658Z,12.78
2023-05-13T00:05:54.301Z,12.77
2023-05-13T00:08:21.846Z,12.75
2023-05-13T00:10:49.264Z,12.72
2023-05-13T00:13:16.670Z,12.72
2023-05-13T00:15:44.140Z,12.72
2023-05-13T00:18:12.268Z,12.71
2023-05-13T00:20:40.001Z,12.68
2023-05-13T00:23:07.962Z,12.65
2023-05-13T00:25:35.500Z,12.64
2023-05-13T00:28:03.032Z,12.63
2023-05-13T00:30:31.081Z,12.62
2023-05-13T00:32:58.950Z,12.59
2023-05-13T00:35:26.504Z,12.57
2023-05-13T00:37:53.847Z,12.56
2023-05-13T00:40:23.262Z,12.53
2023-05-13T00:42:51.270Z,12.48
2023-05-13T00:45:18.831Z,12.47
2023-05-13T00:47:46.385Z,12.45
2023-05-13T00:50:14.436Z,12.42
2023-05-13T00:52:42.491Z,12.38
2023-05-13T00:55:10.444Z,12.37
2023-05-13T00:57:38.175Z,12.36
2023-05-13T01:00:06.249Z,12.33
2023-05-13T01:02:55.737Z,12.30
2023-05-13T01:05:28.450Z,12.29
2023-05-13T01:08:22.389Z,12.27
2023-05-13T01:10:52.009Z,12.22
2023-05-13T01:13:28.882Z,12.21
2023-05-13T01:16:18.162Z,12.16
2023-05-13T01:18:49.207Z,12.17
2023-05-13T01:21:16.802Z,12.17
2023-05-13T01:23:44.318Z,12.13
2023-05-13T01:26:14.229Z,12.12
2023-05-13T01:28:41.874Z,12.11
2023-05-13T01:31:11.078Z,12.09
2023-05-13T01:33:39.030Z,12.08
2023-05-13T01:36:07.566Z,12.04
2023-05-13T01:38:37.068Z,12.02
2023-05-13T01:41:04.906Z,12.00
2023-05-13T01:43:32.595Z,11.97
2023-05-13T01:46:01.529Z,11.94
2023-05-13T01:48:29.531Z,11.92
2023-05-13T01:50:58.426Z,11.93
2023-05-13T01:53:28.328Z,11.89
2023-05-13T01:55:58.085Z,11.89
2023-05-13T01:58:25.634Z,11.86
2023-05-13T02:00:57.703Z,11.83
2023-05-13T02:03:25.596Z,11.79
2023-05-13T02:05:53.457Z,11.76
2023-05-13T02:08:22.259Z,11.74
2023-05-13T02:11:00.453Z,11.70
2023-05-13T02:13:31.826Z,11.70
2023-05-13T02:15:59.415Z,11.70
2023-05-13T02:18:27.196Z,11.69
2023-05-13T02:20:54.941Z,11.69
2023-05-13T02:23:22.679Z,11.69
2023-05-13T02:25:51.370Z,11.70
2023-05-13T02:28:19.308Z,11.70
2023-05-13T02:30:46.934Z,11.70
2023-05-13T02:33:15.129Z,11.72
2023-05-13T02:35:43.074Z,11.73
2023-05-13T02:38:10.676Z,11.73
2023-05-13T02:40:38.423Z,11.73
2023-05-13T02:43:06.419Z,11.73
2023-05-13T02:45:47.187Z,11.73
2023-05-13T02:48:15.094Z,11.75
2023-05-13T02:50:42.629Z,11.76
2023-05-13T02:53:11.149Z,11.76
2023-05-13T02:55:43.420Z,11.78
2023-05-13T02:58:11.011Z,11.80
2023-05-13T03:00:38.367Z,11.81
2023-05-13T03:03:05.995Z,11.82
2023-05-13T03:05:35.944Z,11.85
2023-05-13T03:08:03.691Z,11.87
2023-05-13T03:10:31.193Z,11.91
2023-05-13T03:12:58.568Z,11.93
2023-05-13T03:15:25.906Z,11.96
2023-05-13T03:17:55.573Z,12.02
2023-05-13T03:20:23.321Z,12.06
2023-05-13T03:22:50.968Z,12.10
2023-05-13T03:25:18.446Z,12.16
2023-05-13T03:27:51.018Z,12.20
2023-05-13T03:30:21.317Z,12.24
2023-05-13T03:32:57.981Z,12.27
2023-05-13T03:35:25.578Z,12.29
2023-05-13T03:37:55.821Z,12.33
2023-05-13T03:40:23.492Z,12.36
2023-05-13T03:42:51.777Z,12.41
2023-05-13T03:45:21.284Z,12.47
2023-05-13T03:47:54.028Z,12.52
2023-05-13T03:50:24.739Z,12.57
2023-05-13T03:52:53.135Z,12.62
2023-05-13T03:55:22.191Z,12.69
2023-05-13T03:57:51.053Z,12.73
2023-05-13T04:00:21.441Z,12.79
2023-05-13T04:02:49.704Z,12.83
2023-05-13T04:05:19.808Z,12.87
2023-05-13T04:07:47.311Z,12.92
2023-05-13T04:10:15.682Z,12.98
2023-05-13T04:12:43.801Z,13.03
2023-05-13T04:15:11.426Z,13.08
2023-05-13T04:17:38.910Z,13.13
2023-05-13T04:20:07.794Z,13.19
2023-05-13T04:22:35.834Z,13.24
2023-05-13T04:25:03.326Z,13.31
2023-05-13T04:27:31.273Z,13.36
2023-05-13T04:30:08.984Z,13.43
2023-05-13T04:32:39.304Z,13.50
2023-05-13T04:35:09.251Z,13.56
2023-05-13T04:37:37.620Z,13.61
2023-05-13T04:40:08.599Z,13.67
2023-05-13T04:42:36.248Z,13.74
2023-05-13T04:45:04.230Z,13.80
2023-05-13T04:47:35.297Z,13.88
2023-05-13T04:50:02.976Z,13.93
2023-05-13T04:52:32.128Z,14.00
2023-05-13T04:54:59.584Z,14.06
2023-05-13T04:57:28.533Z,14.14
2023-05-13T04:59:56.667Z,14.21
2023-05-13T05:02:24.389Z,14.28
2023-05-13T05:04:51.929Z,14.35
2023-05-13T05:07:20.098Z,14.43
2023-05-13T05:09:49.875Z,14.52
2023-05-13T05:12:17.558Z,14.62
2023-05-13T05:14:47.253Z,14.70
2023-05-13T05:17:18.535Z,14.80
2023-05-13T05:19:46.727Z,14.89
2023-05-13T05:22:15.205Z,14.99
2023-05-13T05:24:42.744Z,15.08
2023-05-13T05:27:10.420Z,15.17
2023-05-13T05:29:37.932Z,15.24
2023-05-13T05:32:06.198Z,15.32
2023-05-13T05:34:33.847Z,15.39
2023-05-13T05:37:01.392Z,15.47
2023-05-13T05:39:29.580Z,15.54
2023-05-13T05:41:57.072Z,15.63
2023-05-13T05:44:24.609Z,15.73
2023-05-13T05:46:55.412Z,15.82
2023-05-13T05:49:23.895Z,15.92
2023-05-13T05:51:51.763Z,16.00
2023-05-13T05:54:20.586Z,16.09
2023-05-13T05:56:48.630Z,16.16
2023-05-13T05:59:16.145Z,16.23
2023-05-13T06:01:43.680Z,16.27
2023-05-13T06:04:11.328Z,16.34
2023-05-13T06:06:40.455Z,16.39
2023-05-13T06:09:08.158Z,16.44
2023-05-13T06:11:35.881Z,16.50
2023-05-13T06:14:04.179Z,16.56
2023-05-13T06:16:31.998Z,16.61
2023-05-13T06:19:00.980Z,16.71
2023-05-13T06:21:28.725Z,16.80
2023-05-13T06:23:56.476Z,16.85
2023-05-13T06:26:23.915Z,16.93
2023-05-13T06:28:51.337Z,17.00
2023-05-13T06:31:19.017Z,17.02
2023-05-13T06:33:47.238Z,17.09
2023-05-13T06:36:14.735Z,17.12
2023-05-13T06:38:42.354Z,17.20
2023-05-13T06:41:09.830Z,17.30
2023-05-13T06:43:39.448Z,17.39
2023-05-13T06:46:16.614Z,17.46
2023-05-13T06:48:44.326Z,17.52
2023-05-13T06:51:11.803Z,17.56
2023-05-13T06:53:39.338Z,17.61
2023-05-13T06:56:07.337Z,17.65
2023-05-13T06:58:34.938Z,17.69
2023-05-13T07:01:03.001Z,17.73
2023-05-13T07:03:30.940Z,17.81
2023-05-13T07:05:58.599Z,17.89
2023-05-13T07:08:26.083Z,17.95
2023-05-13T07:10:53.817Z,17.99
2023-05-13T07:13:21.326Z,18.09
2023-05-13T07:15:48.851Z,18.18
2023-05-13T07:18:16.688Z,18.29
2023-05-13T07:20:44.295Z,18.38
2023-05-13T07:23:11.746Z,18.48
2023-05-13T07:25:40.044Z,18.58
2023-05-13T07:28:10.002Z,18.66
2023-05-13T07:30:40.323Z,18.76
2023-05-13T07:33:07.995Z,18.83
2023-05-13T07:35:35.582Z,18.89
2023-05-13T07:38:04.175Z,18.99
2023-05-13T07:40:32.409Z,19.05
2023-05-13T07:42:59.905Z,19.12
2023-05-13T07:45:27.892Z,19.22
2023-05-13T07:47:55.398Z,19.25
2023-05-13T07:50:22.933Z,19.31
2023-05-13T07:52:51.845Z,19.40
2023-05-13T07:55:19.690Z,19.47
2023-05-13T07:57:47.279Z,19.54
2023-05-13T08:00:15.787Z,19.56
2023-05-13T08:02:44.002Z,19.61
2023-05-13T08:05:12.432Z,19.72
2023-05-13T08:07:40.337Z,19.79
2023-05-13T08:10:08.308Z,19.84
2023-05-13T08:12:35.978Z,19.88
2023-05-13T08:15:04.755Z,19.93
2023-05-13T08:17:33.148Z,19.98
2023-05-13T08:20:04.161Z,20.06
2023-05-13T08:22:32.162Z,20.14
2023-05-13T08:25:01.438Z,20.19
2023-05-13T08:27:29.233Z,20.29
2023-05-13T08:29:56.736Z,20.27
2023-05-13T08:32:24.243Z,20.32
2023-05-13T08:34:51.749Z,20.41
2023-05-13T08:37:19.336Z,20.53
2023-05-13T08:39:47.166Z,20.62
2023-05-13T08:42:19.334Z,20.51
2023-05-13T08:44:46.840Z,20.40
2023-05-13T08:47:46.921Z,20.30
2023-05-13T08:50:14.874Z,20.38
2023-05-13T08:52:43.104Z,20.46
2023-05-13T08:55:10.605Z,20.53
2023-05-13T08:57:39.506Z,20.69
2023-05-13T09:00:07.760Z,20.73
2023-05-13T09:02:35.951Z,20.78
2023-05-13T09:05:07.110Z,20.88
2023-05-13T09:07:37.369Z,20.99
2023-05-13T09:10:06.259Z,21.03
2023-05-13T09:12:53.780Z,21.11
2023-05-13T09:15:23.366Z,21.04
2023-05-13T09:17:53.161Z,21.04
2023-05-13T09:20:21.377Z,21.05
2023-05-13T09:22:50.915Z,21.08
2023-05-13T09:25:20.364Z,21.11
2023-05-13T09:27:50.471Z,21.18
2023-05-13T09:30:17.994Z,21.27
2023-05-13T09:32:45.798Z,21.38
2023-05-13T09:35:17.180Z,21.55
2023-05-13T09:37:48.454Z,21.70
2023-05-13T09:40:17.259Z,21.82
2023-05-13T09:42:45.402Z,21.92
2023-05-13T09:45:14.102Z,21.99
2023-05-13T09:47:42.563Z,22.09
2023-05-13T09:50:11.815Z,22.12
2023-05-13T09:52:40.574Z,22.14
2023-05-13T09:55:09.843Z,22.23
2023-05-13T09:57:39.237Z,22.21
2023-05-13T10:00:10.992Z,22.16
2023-05-13T10:02:43.625Z,22.01
2023-05-13T10:05:11.298Z,22.04
2023-05-13T10:07:39.440Z,22.14
2023-05-13T10:10:07.782Z,22.18
2023-05-13T10:12:36.441Z,22.24
2023-05-13T10:15:05.535Z,22.34
2023-05-13T10:17:33.384Z,22.38
2023-05-13T10:20:01.820Z,22.45
2023-05-13T10:22:30.813Z,22.47
2023-05-13T10:24:59.084Z,22.48
2023-05-13T10:27:28.462Z,22.56
2023-05-13T10:29:57.053Z,22.61
2023-05-13T10:32:25.538Z,22.59
2023-05-13T10:35:00.476Z,22.57
2023-05-13T10:37:27.919Z,22.64
2023-05-13T10:40:01.467Z,22.72
2023-05-13T10:42:43.126Z,22.75
2023-05-13T10:45:11.000Z,22.75
2023-05-13T10:47:39.232Z,22.76
2023-05-13T10:50:22.279Z,22.81
2023-05-13T10:52:50.212Z,22.81
2023-05-13T10:55:19.305Z,22.93
2023-05-13T10:58:11.159Z,22.98
2023-05-13T11:00:43.250Z,23.02
2023-05-13T11:03:14.419Z,23.04
2023-05-13T11:05:44.640Z,23.10
2023-05-13T11:08:12.102Z,23.19
2023-05-13T11:10:39.600Z,23.23
2023-05-13T11:13:13.548Z,23.30
2023-05-13T11:15:54.273Z,23.24
2023-05-13T11:18:29.635Z,23.38
2023-05-13T11:21:05.084Z,23.55
2023-05-13T11:23:49.808Z,23.70
2023-05-13T11:26:17.347Z,23.74
2023-05-13T11:28:59.909Z,23.75
2023-05-13T11:31:28.640Z,23.83
2023-05-13T11:34:09.836Z,23.81
2023-05-13T11:36:38.781Z,23.78
2023-05-13T11:39:14.062Z,23.83
2023-05-13T11:41:50.821Z,23.88
2023-05-13T11:44:20.357Z,23.92
2023-05-13T11:46:55.719Z,23.86
2023-05-13T11:49:44.085Z,23.88
2023-05-13T11:52:16.055Z,23.88
2023-05-13T11:54:53.741Z,23.82
2023-05-13T11:57:28.106Z,23.86
2023-05-13T12:00:00.425Z,23.93
2023-05-13T12:02:29.737Z,24.04
2023-05-13T12:05:02.038Z,24.16
2023-05-13T12:07:29.684Z,24.25
2023-05-13T12:09:58.470Z,24.29
2023-05-13T12:12:28.293Z,24.33
2023-05-13T12:14:56.279Z,24.24
2023-05-13T12:17:25.027Z,24.12
2023-05-13T12:20:05.828Z,24.01
2023-05-13T12:22:34.473Z,23.93
2023-05-13T12:25:36.398Z,23.92
2023-05-13T12:28:10.796Z,23.87
2023-05-13T12:30:39.645Z,23.84
2023-05-13T12:33:15.099Z,23.75
2023-05-13T12:35:43.157Z,23.78
2023-05-13T12:38:17.873Z,23.85
2023-05-13T12:40:48.640Z,23.89
2023-05-13T12:43:17.239Z,23.96
2023-05-13T12:45:45.702Z,23.99
2023-05-13T12:48:14.502Z,23.97
2023-05-13T12:50:42.100Z,24.04
2023-05-13T12:53:09.668Z,24.11
2023-05-13T12:55:40.273Z,24.19
2023-05-13T12:58:11.015Z,24.25
2023-05-13T13:00:39.022Z,24.33
2023-05-13T13:03:08.011Z,24.36
2023-05-13T13:05:36.206Z,24.43
2023-05-13T13:08:05.479Z,24.46
2023-05-13T13:10:33.226Z,24.40
2023-05-13T13:13:01.552Z,24.40
2023-05-13T13:15:29.207Z,24.48
2023-05-13T13:17:56.792Z,24.51
2023-05-13T13:20:24.413Z,24.55
2023-05-13T13:22:53.781Z,24.65
2023-05-13T13:25:22.279Z,24.74
2023-05-13T13:27:50.324Z,24.77
2023-05-13T13:30:17.851Z,24.76
2023-05-13T13:32:45.856Z,24.70
2023-05-13T13:35:13.452Z,24.61
2023-05-13T13:37:41.081Z,24.52
2023-05-13T13:40:09.244Z,24.43
2023-05-13T13:42:44.116Z,24.31
2023-05-13T13:45:13.714Z,24.13
2023-05-13T13:47:41.573Z,24.03
2023-05-13T13:50:09.516Z,23.93
2023-05-13T13:52:37.979Z,23.87
2023-05-13T13:55:06.435Z,23.77
2023-05-13T13:57:34.019Z,23.74
2023-05-13T14:00:01.531Z,23.70
2023-05-13T14:02:29.832Z,23.69
2023-05-13T14:04:57.860Z,23.60
2023-05-13T14:07:25.483Z,23.61
2023-05-13T14:09:52.948Z,23.66
2023-05-13T14:12:20.619Z,23.61
2023-05-13T14:14:48.248Z,23.56
2023-05-13T14:17:15.786Z,23.46
2023-05-13T14:19:43.336Z,23.42
2023-05-13T14:22:10.799Z,23.40
2023-05-13T14:24:38.359Z,23.41
2023-05-13T14:27:06.070Z,23.44
2023-05-13T14:29:33.633Z,23.41
2023-05-13T14:32:03.152Z,23.45
2023-05-13T14:34:30.744Z,23.51
2023-05-13T14:36:58.346Z,23.58
2023-05-13T14:39:25.846Z,23.62
2023-05-13T14:41:53.420Z,23.65
2023-05-13T14:44:21.097Z,23.72
2023-05-13T14:46:50.817Z,23.79
2023-05-13T14:49:18.319Z,23.83
2023-05-13T14:51:45.878Z,23.87
2023-05-13T14:54:13.465Z,23.88
2023-05-13T14:56:41.659Z,23.92
2023-05-13T14:59:09.727Z,23.96
2023-05-13T15:01:38.369Z,23.98
2023-05-13T15:04:06.213Z,23.95
2023-05-13T15:06:36.846Z,23.92
2023-05-13T15:09:05.764Z,23.91
2023-05-13T15:11:33.480Z,23.86
2023-05-13T15:14:01.891Z,23.83
2023-05-13T15:16:29.527Z,23.81
2023-05-13T15:18:57.320Z,23.80
2023-05-13T15:21:24.780Z,23.72
2023-05-13T15:23:52.227Z,23.70
2023-05-13T15:26:19.867Z,23.70
2023-05-13T15:28:47.608Z,23.64
2023-05-13T15:31:15.152Z,23.61
2023-05-13T15:33:44.554Z,23.59
2023-05-13T15:36:12.783Z,23.58
2023-05-13T15:38:40.816Z,23.54
2023-05-13T15:41:08.630Z,23.51
2023-05-13T15:43:36.534Z,23.49
2023-05-13T15:46:04.722Z,23.48
2023-05-13T15:48:33.083Z,23.43
2023-05-13T15:51:03.497Z,23.37
2023-05-13T15:53:31.455Z,23.30
2023-05-13T15:55:58.925Z,23.26
2023-05-13T15:58:26.797Z,23.24
2023-05-13T16:00:54.305Z,23.22
2023-05-13T16:03:22.321Z,23.20
2023-05-13T16:05:49.877Z,23.15
2023-05-13T16:08:18.773Z,23.11
2023-05-13T16:10:47.092Z,23.04
2023-05-13T16:13:14.659Z,22.98
2023-05-13T16:15:42.240Z,22.93
2023-05-13T16:18:09.934Z,22.88
2023-05-13T16:20:37.498Z,22.83
2023-05-13T16:23:05.190Z,22.79
2023-05-13T16:25:33.929Z,22.73
2023-05-13T16:28:01.606Z,22.70
2023-05-13T16:30:29.436Z,22.64
2023-05-13T16:32:57.529Z,22.55
2023-05-13T16:35:25.057Z,22.45
2023-05-13T16:37:52.744Z,22.35
2023-05-13T16:40:20.596Z,22.21
2023-05-13T16:42:48.192Z,22.10
2023-05-13T16:45:15.746Z,21.98
2023-05-13T16:47:43.604Z,21.86
2023-05-13T16:50:11.210Z,21.73
2023-05-13T16:52:38.836Z,21.61
2023-05-13T16:55:06.984Z,21.50
2023-05-13T16:57:35.095Z,21.37
2023-05-13T17:00:02.656Z,21.25
2023-05-13T17:02:30.798Z,21.14
2023-05-13T17:04:58.279Z,21.03
2023-05-13T17:07:25.745Z,20.89
2023-05-13T17:09:53.293Z,20.79
2023-05-13T17:12:21.891Z,20.67
2023-05-13T17:14:49.359Z,20.56
2023-05-13T17:17:16.875Z,20.44
2023-05-13T17:19:44.563Z,20.34
2023-05-13T17:22:12.494Z,20.22
2023-05-13T17:24:40.691Z,20.11
2023-05-13T17:27:08.169Z,20.04
2023-05-13T17:29:35.694Z,19.93
2023-05-13T17:32:03.359Z,19.84
2023-05-13T17:34:30.971Z,19.75
2023-05-13T17:36:58.810Z,19.65
2023-05-13T17:39:28.408Z,19.57
2023-05-13T17:41:55.912Z,19.48
2023-05-13T17:44:24.133Z,19.40
2023-05-13T17:46:51.872Z,19.31
2023-05-13T17:49:19.766Z,19.26
2023-05-13T17:51:47.287Z,19.19
2023-05-13T17:54:15.048Z,19.13
2023-05-13T17:56:42.670Z,19.07
2023-05-13T17:59:10.359Z,19.02
2023-05-13T18:01:38.577Z,18.96
2023-05-13T18:04:06.393Z,18.89
2023-05-13T18:06:34.172Z,18.83
2023-05-13T18:09:02.638Z,18.76
2023-05-13T18:11:30.218Z,18.72
2023-05-13T18:13:57.832Z,18.67
2023-05-13T18:16:25.465Z,18.60
2023-05-13T18:18:53.223Z,18.54
2023-05-13T18:21:23.006Z,18.49
2023-05-13T18:23:50.527Z,18.46
2023-05-13T18:26:18.690Z,18.40
2023-05-13T18:28:46.952Z,18.34
2023-05-13T18:31:14.777Z,18.29
2023-05-13T18:33:42.332Z,18.25
2023-05-13T18:36:10.353Z,18.20
2023-05-13T18:38:39.621Z,18.15
2023-05-13T18:41:07.177Z,18.11
2023-05-13T18:43:34.717Z,18.06
2023-05-13T18:46:02.591Z,18.02
2023-05-13T18:48:30.495Z,17.97
2023-05-13T18:50:57.984Z,17.91
2023-05-13T18:53:25.477Z,17.86
2023-05-13T18:55:53.351Z,17.82
2023-05-13T18:58:21.310Z,17.79
2023-05-13T19:00:49.179Z,17.75
2023-05-13T19:03:17.248Z,17.70
2023-05-13T19:05:46.257Z,17.65
2023-05-13T19:08:14.276Z,17.63
2023-05-13T19:10:42.053Z,17.60
2023-05-13T19:13:09.638Z,17.54
2023-05-13T19:15:37.186Z,17.49
2023-05-13T19:18:04.767Z,17.44
2023-05-13T19:20:32.432Z,17.41
2023-05-13T19:23:00.214Z,17.37
2023-05-13T19:25:28.130Z,17.36
2023-05-13T19:27:56.370Z,17.33
2023-05-13T19:30:24.199Z,17.31
2023-05-13T19:32:52.890Z,17.27
2023-05-13T19:35:20.520Z,17.23
2023-05-13T19:37:48.119Z,17.19
2023-05-13T19:40:15.726Z,17.16
2023-05-13T19:42:43.261Z,17.10
2023-05-13T19:45:11.152Z,17.07
2023-05-13T19:47:39.596Z,17.04
2023-05-13T19:50:07.405Z,17.02
2023-05-13T19:52:35.283Z,16.97
2023-05-13T19:55:03.267Z,16.95
2023-05-13T19:57:31.250Z,16.92
2023-05-13T19:59:58.882Z,16.89
2023-05-13T20:02:26.917Z,16.85
2023-05-13T20:04:54.507Z,16.82
2023-05-13T20:07:22.010Z,16.78
2023-05-13T20:09:49.643Z,16.77
2023-05-13T20:12:17.120Z,16.73
2023-05-13T20:14:48.877Z,16.71
2023-05-13T20:17:18.241Z,16.69
2023-05-13T20:19:47.427Z,16.66
2023-05-13T20:22:16.534Z,16.63
2023-05-13T20:24:48.055Z,16.62
2023-05-13T20:27:16.140Z,16.60
2023-05-13T20:29:44.710Z,16.58
2023-05-13T20:32:12.288Z,16.54
2023-05-13T20:34:41.420Z,16.53
2023-05-13T20:37:09.003Z,16.52
2023-05-13T20:39:36.912Z,16.50
2023-05-13T20:42:04.550Z,16.49
2023-05-13T20:44:33.013Z,16.47
2023-05-13T20:47:01.034Z,16.44
2023-05-13T20:49:28.576Z,16.42
2023-05-13T20:52:01.284Z,16.40
2023-05-13T20:54:29.137Z,16.36
2023-05-13T20:56:56.722Z,16.35
2023-05-13T20:59:24.131Z,16.33
2023-05-13T21:01:51.684Z,16.30
2023-05-13T21:04:19.559Z,16.29
2023-05-13T21:06:47.622Z,16.25
2023-05-13T21:09:15.142Z,16.22
2023-05-13T21:11:43.215Z,16.21
2023-05-13T21:14:10.648Z,16.21
2023-05-13T21:16:38.094Z,16.25
2023-05-13T21:19:05.683Z,16.29
2023-05-13T21:21:33.450Z,16.28
2023-05-13T21:24:00.989Z,16.25
2023-05-13T21:26:28.521Z,16.23
2023-05-13T21:28:55.953Z,16.19
2023-05-13T21:31:23.804Z,16.18
2023-05-13T21:33:51.440Z,16.15
2023-05-13T21:36:19.134Z,16.11
2023-05-13T21:38:46.717Z,16.09
2023-05-13T21:41:14.339Z,16.07
2023-05-13T21:43:41.987Z,16.06
2023-05-13T21:46:09.601Z,16.02
2023-05-13T21:48:37.328Z,15.97
2023-05-13T21:51:04.824Z,15.95
2023-05-13T21:53:33.970Z,15.93
2023-05-13T21:56:02.011Z,15.91
2023-05-13T21:58:29.608Z,15.89
2023-05-13T22:00:57.174Z,15.88
2023-05-13T22:03:24.745Z,15.88
2023-05-13T22:05:52.297Z,15.86
2023-05-13T22:08:21.189Z,15.82
2023-05-13T22:10:48.715Z,15.82
2023-05-13T22:13:17.166Z,15.80
2023-05-13T22:15:44.730Z,15.77
2023-05-13T22:18:12.725Z,15.77
2023-05-13T22:20:40.374Z,15.77
2023-05-13T22:23:07.896Z,15.76
2023-05-13T22:25:35.429Z,15.73
2023-05-13T22:28:03.035Z,15.72
2023-05-13T22:30:31.024Z,15.69
2023-05-13T22:32:59.177Z,15.66
2023-05-13T22:35:28.905Z,15.65
2023-05-13T22:37:56.564Z,15.63
2023-05-13T22:40:24.280Z,15.60
2023-05-13T22:42:52.380Z,15.59
2023-05-13T22:45:20.014Z,15.55
2023-05-13T22:47:48.134Z,15.53
2023-05-13T22:50:15.815Z,15.49
2023-05-13T22:52:43.365Z,15.48
2023-05-13T22:55:11.086Z,15.45
2023-05-13T22:57:39.462Z,15.41
2023-05-13T23:00:07.830Z,15.38
2023-05-13T23:02:35.551Z,15.34
2023-05-13T23:05:03.405Z,15.34
2023-05-13T23:07:30.980Z,15.34
2023-05-13T23:09:58.358Z,15.34
2023-05-13T23:12:26.532Z,15.34
2023-05-13T23:14:53.978Z,15.35
2023-05-13T23:17:21.536Z,15.34
2023-05-13T23:19:48.900Z,15.34
2023-05-13T23:22:16.347Z,15.35
2023-05-13T23:24:43.685Z,15.37
2023-05-13T23:27:11.785Z,15.38
2023-05-13T23:29:39.218Z,15.35
2023-05-13T23:32:07.034Z,15.34
2023-05-13T23:34:34.864Z,15.34
2023-05-13T23:37:02.376Z,15.34
2023-05-13T23:39:29.809Z,15.32
2023-05-13T23:41:57.325Z,15.31
2023-05-13T23:44:24.736Z,15.27
2023-05-13T23:46:52.175Z,15.28
2023-05-13T23:49:19.573Z,15.28
2023-05-13T23:51:47.052Z,15.28
2023-05-13T23:54:14.384Z,15.23
2023-05-13T23:56:41.896Z,15.22
2023-05-13T23:59:09.261Z,15.21
